TimeMDT,TemperatureF,Dew PointF,Humidity,Sea Level PressureIn,VisibilityMPH,Wind Direction,Wind SpeedMPH,Gust SpeedMPH,PrecipitationIn,Events,Conditions,WindDirDegrees,DateUTC
12:55 AM,54.0,53.1,97,30.12,10.0,West,3.5,-,N/A,,Overcast,260,2013-08-03 06:55:00
1:55 AM,54.0,53.1,97,30.12,10.0,Calm,Calm,-,N/A,,Overcast,0,2013-08-03 07:55:00
2:55 AM,54.0,53.1,97,30.11,10.0,Calm,Calm,-,N/A,,Overcast,0,2013-08-03 08:55:00
3:40 AM,53.6,51.8,94,30.11,2.5,West,3.5,-,N/A,,Mostly Cloudy,280,2013-08-03 09:40:00
3:44 AM,53.6,51.8,94,30.11,1.5,WNW,3.5,-,N/A,,Mostly Cloudy,290,2013-08-03 09:44:00
3:55 AM,53.1,52.0,96,30.11,2.0,West,3.5,-,N/A,,Mostly Cloudy,260,2013-08-03 09:55:00
4:36 AM,53.6,51.8,94,30.12,8.0,Calm,Calm,-,N/A,,Mostly Cloudy,0,2013-08-03 10:36:00
4:55 AM,52.0,52.0,100,30.12,9.0,Calm,Calm,-,N/A,,Overcast,0,2013-08-03 10:55:00
5:29 AM,51.8,51.8,100,30.12,10.0,South,3.5,-,N/A,,Mostly Cloudy,180,2013-08-03 11:29:00
5:55 AM,52.0,51.1,97,30.13,10.0,South,3.5,-,N/A,,Overcast,190,2013-08-03 11:55:00
6:36 AM,53.6,51.8,94,30.13,10.0,Calm,Calm,-,N/A,,Overcast,0,2013-08-03 12:36:00
6:55 AM,52.0,51.1,97,30.13,10.0,Calm,Calm,-,N/A,,Overcast,0,2013-08-03 12:55:00
7:24 AM,53.6,51.8,94,30.14,10.0,Calm,Calm,-,N/A,,Overcast,0,2013-08-03 13:24:00
7:55 AM,54.0,52.0,93,30.14,10.0,Calm,Calm,-,N/A,,Overcast,0,2013-08-03 13:55:00
8:06 AM,53.6,51.8,94,30.15,10.0,WSW,3.5,-,N/A,,Overcast,250,2013-08-03 14:06:00
8:55 AM,57.9,53.1,84,30.14,10.0,Calm,Calm,-,N/A,,Mostly Cloudy,0,2013-08-03 14:55:00
9:02 AM,57.2,51.8,82,30.15,10.0,Calm,Calm,-,N/A,,Scattered Clouds,0,2013-08-03 15:02:00
9:12 AM,57.2,53.6,88,30.15,10.0,Calm,Calm,-,N/A,,Mostly Cloudy,0,2013-08-03 15:12:00
9:55 AM,59.0,54.0,83,30.14,10.0,North,4.6,-,N/A,,Mostly Cloudy,10,2013-08-03 15:55:00
10:55 AM,60.1,54.0,80,30.14,10.0,NNW,3.5,-,N/A,,Mostly Cloudy,340,2013-08-03 16:55:00
11:55 AM,62.1,54.0,75,30.14,10.0,Variable,5.8,-,N/A,,Partly Cloudy,0,2013-08-03 17:55:00
12:55 PM,66.0,54.0,65,30.12,10.0,Calm,Calm,-,N/A,,Clear,0,2013-08-03 18:55:00
1:55 PM,68.0,50.0,52,30.11,10.0,Calm,Calm,-,N/A,,Scattered Clouds,0,2013-08-03 19:55:00
2:55 PM,70.0,48.9,47,30.09,10.0,WNW,4.6,-,N/A,,Clear,300,2013-08-03 20:55:00
3:55 PM,73.9,50.0,43,30.07,10.0,Calm,Calm,-,N/A,,Scattered Clouds,0,2013-08-03 21:55:00
4:55 PM,73.9,48.9,41,30.07,10.0,South,4.6,-,N/A,,Mostly Cloudy,180,2013-08-03 22:55:00
5:55 PM,66.9,55.0,66,30.08,10.0,Variable,6.9,-,0.01,,Mostly Cloudy,0,2013-08-03 23:55:00
6:55 PM,73.0,51.1,46,30.06,10.0,North,4.6,-,N/A,,Clear,10,2013-08-04 00:55:00
7:55 PM,72.0,50.0,46,30.05,10.0,Calm,Calm,-,N/A,,Clear,0,2013-08-04 01:55:00
8:55 PM,66.9,55.9,68,30.05,10.0,Calm,Calm,-,N/A,,Mostly Cloudy,0,2013-08-04 02:55:00
9:55 PM,62.1,55.0,78,30.07,10.0,Calm,Calm,-,N/A,,Scattered Clouds,0,2013-08-04 03:55:00
10:55 PM,57.0,54.0,89,30.08,10.0,Calm,Calm,-,N/A,,Clear,0,2013-08-04 04:55:00
11:55 PM,55.9,54.0,93,30.09,10.0,WNW,3.5,-,N/A,,Clear,290,2013-08-04 05:55:00